KANJ

Sault Ste Marie Municipal / Sanderson Field Airport

Sault Ste Marie, Michigan, USA
METAR KANJ 181955Z AUTO 08003KT 1/4SM FZFG M01/M02 A2970 RMK AO2 SLP067 T10111022 $
Observed Flight Rules
Dec-18 @ 19:55 UTC (27 minutes ago)
Wind Visibility Conditions
80° at 3 knots 1/4 miles
  • Freezing
  • Fog
Temperatures Readings
Current -1°C / 30°F
Dewpoint -2°C / 28°F
Humidity 93%
Altimeter 29.7" Hg
Pressure 1006.7 hPa
Elevation 218
METAR KANJ 181955Z AUTO 08003KT 1/4SM FZFG M01/M02 A2970 RMK AO2 SLP067 T10111022 $
Observed Flight Rules
Dec-18 @ 19:55 UTC
(27 minutes ago)
Wind Visibility
80° at 3 knots 1/4 miles
Conditions
  • Freezing
  • Fog
Temperature Dewpoint
-1°C / 30°F -2°C / 28°F
Humidity Altimeter Pressure
93% 29.7" Hg 1006.7 hPa